createdAt,value
2022-10-23T00:00:15.328Z,11.73
2022-10-23T00:02:42.258Z,11.73
2022-10-23T00:05:09.235Z,11.70
2022-10-23T00:07:35.872Z,11.71
2022-10-23T00:10:02.450Z,11.69
2022-10-23T00:12:29.029Z,11.71
2022-10-23T00:14:55.440Z,11.69
2022-10-23T00:17:21.826Z,11.70
2022-10-23T00:19:48.317Z,11.71
2022-10-23T00:22:14.748Z,11.70
2022-10-23T00:24:41.184Z,11.69
2022-10-23T00:27:07.931Z,11.67
2022-10-23T00:29:34.427Z,11.65
2022-10-23T00:32:00.935Z,11.62
2022-10-23T00:34:27.371Z,11.59
2022-10-23T00:36:53.786Z,11.57
2022-10-23T00:39:20.228Z,11.58
2022-10-23T00:41:46.653Z,11.58
2022-10-23T00:44:19.034Z,11.61
2022-10-23T00:46:46.222Z,11.61
2022-10-23T00:49:13.472Z,11.62
2022-10-23T00:51:48.842Z,11.62
2022-10-23T00:54:25.561Z,11.56
2022-10-23T00:56:59.293Z,11.56
2022-10-23T00:59:26.350Z,11.57
2022-10-23T01:01:53.776Z,11.58
2022-10-23T01:04:21.566Z,11.59
2022-10-23T01:07:03.520Z,11.57
2022-10-23T01:09:41.895Z,11.57
2022-10-23T01:12:20.703Z,11.56
2022-10-23T01:14:47.130Z,11.54
2022-10-23T01:17:26.059Z,11.54
2022-10-23T01:20:12.810Z,11.53
2022-10-23T01:23:14.768Z,11.54
2022-10-23T01:26:02.410Z,11.54
2022-10-23T01:28:50.403Z,11.54
2022-10-23T01:31:25.716Z,11.58
2022-10-23T01:33:58.884Z,11.57
2022-10-23T01:36:29.028Z,11.60
2022-10-23T01:39:25.540Z,11.66
2022-10-23T01:41:57.854Z,11.68
2022-10-23T01:44:36.986Z,11.72
2022-10-23T01:47:07.329Z,11.73
2022-10-23T01:49:36.023Z,11.72
2022-10-23T01:52:08.499Z,11.77
2022-10-23T01:54:39.434Z,11.74
2022-10-23T01:57:10.725Z,11.74
2022-10-23T01:59:43.947Z,11.72
2022-10-23T02:02:13.240Z,11.73
2022-10-23T02:04:46.360Z,11.73
2022-10-23T02:07:12.848Z,11.81
2022-10-23T02:09:39.854Z,11.82
2022-10-23T02:12:18.354Z,11.80
2022-10-23T02:14:58.342Z,11.79
2022-10-23T02:17:41.275Z,11.81
2022-10-23T02:20:26.889Z,11.82
2022-10-23T02:23:02.034Z,11.86
2022-10-23T02:25:35.298Z,11.88
2022-10-23T02:28:07.255Z,11.85
2022-10-23T02:30:37.758Z,11.84
2022-10-23T02:33:06.712Z,11.85
2022-10-23T02:35:33.269Z,11.84
2022-10-23T02:38:00.928Z,11.86
2022-10-23T02:40:42.037Z,11.86
2022-10-23T02:43:16.908Z,11.88
2022-10-23T02:45:54.380Z,11.88
2022-10-23T02:48:26.949Z,11.86
2022-10-23T02:51:07.571Z,11.86
2022-10-23T02:57:01.705Z,11.84
2022-10-23T02:59:36.866Z,11.84
2022-10-23T03:02:17.025Z,11.79
2022-10-23T03:04:45.086Z,11.75
2022-10-23T03:07:13.464Z,11.77
2022-10-23T03:09:39.931Z,11.75
2022-10-23T03:12:07.992Z,11.74
2022-10-23T03:14:34.437Z,11.74
2022-10-23T03:17:00.906Z,11.72
2022-10-23T03:19:27.313Z,11.73
2022-10-23T03:21:53.852Z,11.75
2022-10-23T03:24:20.296Z,11.74
2022-10-23T03:26:46.899Z,11.71
2022-10-23T03:29:13.414Z,11.70
2022-10-23T03:31:39.979Z,11.68
2022-10-23T03:34:10.992Z,11.68
2022-10-23T03:36:38.160Z,11.63
2022-10-23T03:39:04.701Z,11.62
2022-10-23T03:41:31.379Z,11.63
2022-10-23T03:43:58.089Z,11.62
2022-10-23T03:46:24.649Z,11.60
2022-10-23T03:48:51.241Z,11.60
2022-10-23T03:51:17.705Z,11.58
2022-10-23T03:53:44.147Z,11.56
2022-10-23T03:56:10.576Z,11.55
2022-10-23T03:58:37.022Z,11.56
2022-10-23T04:01:03.684Z,11.58
2022-10-23T04:03:30.196Z,11.57
2022-10-23T04:05:56.624Z,11.59
2022-10-23T04:08:23.063Z,11.59
2022-10-23T04:10:49.637Z,11.58
2022-10-23T04:13:16.060Z,11.57
2022-10-23T04:15:48.580Z,11.57
2022-10-23T04:18:15.450Z,11.57
2022-10-23T04:20:41.959Z,11.64
2022-10-23T04:23:08.427Z,11.61
2022-10-23T04:25:35.014Z,11.66
2022-10-23T04:28:01.520Z,11.64
2022-10-23T04:30:27.967Z,11.65
2022-10-23T04:32:54.524Z,11.67
2022-10-23T04:35:20.957Z,11.67
2022-10-23T04:37:47.405Z,11.66
2022-10-23T04:40:13.994Z,11.68
2022-10-23T04:42:40.671Z,11.67
2022-10-23T04:45:07.746Z,11.65
2022-10-23T04:47:34.319Z,11.69
2022-10-23T04:50:00.785Z,11.65
2022-10-23T04:52:27.302Z,11.66
2022-10-23T04:54:53.843Z,11.66
2022-10-23T04:57:20.287Z,11.69
2022-10-23T04:59:46.801Z,11.68
2022-10-23T05:02:13.254Z,11.69
2022-10-23T05:04:39.712Z,11.69
2022-10-23T05:07:06.184Z,11.69
2022-10-23T05:09:32.662Z,11.71
2022-10-23T05:11:59.100Z,11.73
2022-10-23T05:14:25.591Z,11.74
2022-10-23T05:16:59.314Z,11.74
2022-10-23T05:19:30.517Z,11.79
2022-10-23T05:21:57.670Z,11.82
2022-10-23T05:24:25.233Z,11.84
2022-10-23T05:26:52.941Z,11.87
2022-10-23T05:29:20.174Z,11.86
2022-10-23T05:31:49.449Z,11.86
2022-10-23T05:34:18.181Z,11.87
2022-10-23T05:36:45.529Z,11.87
2022-10-23T05:39:11.954Z,11.87
2022-10-23T05:41:38.412Z,11.89
2022-10-23T05:44:04.891Z,11.89
2022-10-23T05:46:31.339Z,11.95
2022-10-23T05:51:29.251Z,11.93
2022-10-23T05:53:56.823Z,11.91
2022-10-23T05:56:23.418Z,11.94
2022-10-23T05:58:50.009Z,11.96
2022-10-23T06:01:18.396Z,11.94
2022-10-23T06:03:45.092Z,11.94
2022-10-23T06:06:11.657Z,11.96
2022-10-23T06:08:38.129Z,11.96
2022-10-23T06:11:14.041Z,11.96
2022-10-23T06:13:43.308Z,11.97
2022-10-23T06:16:10.080Z,12.03
2022-10-23T06:18:36.912Z,12.02
2022-10-23T06:21:03.779Z,12.03
2022-10-23T06:23:32.415Z,12.04
2022-10-23T06:25:59.331Z,12.11
2022-10-23T06:28:26.344Z,12.12
2022-10-23T06:30:52.913Z,12.12
2022-10-23T06:33:19.866Z,12.11
2022-10-23T06:35:46.515Z,12.15
2022-10-23T06:38:13.040Z,12.16
2022-10-23T06:40:39.514Z,12.20
2022-10-23T06:43:06.467Z,12.26
2022-10-23T06:45:34.018Z,12.26
2022-10-23T06:48:01.264Z,12.31
2022-10-23T06:50:30.912Z,12.33
2022-10-23T06:52:57.374Z,12.32
2022-10-23T06:55:23.774Z,12.33
2022-10-23T06:57:50.264Z,12.37
2022-10-23T07:00:16.892Z,12.42
2022-10-23T07:02:43.787Z,12.43
2022-10-23T07:05:13.477Z,12.47
2022-10-23T07:07:40.525Z,12.53
2022-10-23T07:10:07.528Z,12.53
2022-10-23T07:12:34.056Z,12.58
2022-10-23T07:15:00.493Z,12.62
2022-10-23T07:17:28.830Z,12.63
2022-10-23T07:19:55.414Z,12.64
2022-10-23T07:22:22.087Z,12.64
2022-10-23T07:24:48.578Z,12.66
2022-10-23T07:27:15.039Z,12.70
2022-10-23T07:29:42.120Z,12.72
2022-10-23T07:32:09.158Z,12.77
2022-10-23T07:34:36.872Z,12.85
2022-10-23T07:37:03.380Z,12.89
2022-10-23T07:39:29.978Z,12.93
2022-10-23T07:41:56.478Z,12.99
2022-10-23T07:44:25.611Z,13.05
2022-10-23T07:46:54.034Z,13.10
2022-10-23T07:49:20.538Z,13.16
2022-10-23T07:51:50.503Z,13.20
2022-10-23T07:54:18.282Z,13.23
2022-10-23T07:56:44.708Z,13.26
2022-10-23T07:59:14.210Z,13.29
2022-10-23T08:01:42.619Z,13.37
2022-10-23T08:04:10.421Z,13.39
2022-10-23T08:06:36.969Z,13.41
2022-10-23T08:09:06.431Z,13.42
2022-10-23T08:11:35.548Z,13.53
2022-10-23T08:14:06.040Z,13.54
2022-10-23T08:16:34.675Z,13.61
2022-10-23T08:19:01.946Z,13.67
2022-10-23T08:21:28.452Z,13.66
2022-10-23T08:23:56.493Z,13.74
2022-10-23T08:26:25.663Z,13.77
2022-10-23T08:28:53.004Z,13.75
2022-10-23T08:31:21.011Z,13.81
2022-10-23T08:36:25.711Z,13.86
2022-10-23T08:38:54.066Z,13.94
2022-10-23T08:41:26.503Z,13.93
2022-10-23T08:44:03.920Z,13.97
2022-10-23T08:46:37.603Z,14.03
2022-10-23T08:49:28.487Z,14.04
2022-10-23T08:51:57.671Z,14.07
2022-10-23T08:54:42.201Z,14.11
2022-10-23T08:57:16.438Z,14.12
2022-10-23T08:59:48.956Z,14.16
2022-10-23T09:02:24.280Z,14.18
2022-10-23T09:04:53.550Z,14.20
2022-10-23T09:07:38.026Z,14.20
2022-10-23T09:10:34.073Z,14.22
2022-10-23T09:13:21.654Z,14.22
2022-10-23T09:16:03.644Z,14.26
2022-10-23T09:18:31.396Z,14.34
2022-10-23T09:20:58.266Z,14.33
2022-10-23T09:23:25.098Z,14.36
2022-10-23T09:25:56.891Z,14.37
2022-10-23T09:28:27.524Z,14.42
2022-10-23T09:30:54.030Z,14.48
2022-10-23T09:33:26.252Z,14.51
2022-10-23T09:36:00.124Z,14.56
2022-10-23T09:38:31.137Z,14.59
2022-10-23T09:41:07.701Z,14.59
2022-10-23T09:43:34.363Z,14.59
2022-10-23T09:46:04.998Z,14.57
2022-10-23T09:48:32.258Z,14.65
2022-10-23T09:51:18.671Z,14.65
2022-10-23T09:53:51.831Z,14.66
2022-10-23T09:56:31.986Z,14.70
2022-10-23T09:59:19.436Z,14.74
2022-10-23T10:01:54.688Z,14.77
2022-10-23T10:04:39.839Z,14.76
2022-10-23T10:07:18.889Z,14.78
2022-10-23T10:09:45.417Z,14.77
2022-10-23T10:12:43.322Z,14.77
2022-10-23T10:15:36.319Z,14.79
2022-10-23T10:18:45.746Z,14.77
2022-10-23T10:21:25.092Z,14.79
2022-10-23T10:24:05.763Z,14.83
2022-10-23T10:26:51.004Z,14.84
2022-10-23T10:29:42.019Z,14.84
2022-10-23T10:32:32.025Z,14.84
2022-10-23T10:35:12.552Z,14.84
2022-10-23T10:38:07.308Z,14.87
2022-10-23T10:40:47.099Z,14.89
2022-10-23T10:43:31.475Z,14.91
2022-10-23T10:46:05.207Z,14.88
2022-10-23T10:48:39.950Z,14.89
2022-10-23T10:51:23.395Z,14.90
2022-10-23T10:54:21.635Z,14.94
2022-10-23T10:56:48.564Z,14.97
2022-10-23T10:59:24.988Z,14.96
2022-10-23T11:02:12.642Z,14.98
2022-10-23T11:05:02.856Z,15.03
2022-10-23T11:07:39.400Z,15.06
2022-10-23T11:10:16.242Z,15.07
2022-10-23T11:12:46.393Z,15.11
2022-10-23T11:15:16.155Z,15.14
2022-10-23T11:17:51.188Z,15.17
2022-10-23T11:20:51.334Z,15.16
2022-10-23T11:23:42.479Z,15.23
2022-10-23T11:26:39.574Z,15.29
2022-10-23T11:29:31.450Z,15.32
2022-10-23T11:32:07.092Z,15.46
2022-10-23T11:35:18.531Z,15.51
2022-10-23T11:37:45.203Z,15.53
2022-10-23T11:40:11.979Z,15.59
2022-10-23T11:42:41.742Z,15.63
2022-10-23T11:45:30.642Z,15.67
2022-10-23T11:48:03.742Z,15.77
2022-10-23T11:50:49.746Z,15.80
2022-10-23T11:53:31.495Z,15.89
2022-10-23T11:56:13.171Z,15.98
2022-10-23T11:58:48.853Z,16.01
2022-10-23T12:01:27.741Z,16.07
2022-10-23T12:04:23.458Z,16.11
2022-10-23T12:06:55.458Z,16.19
2022-10-23T12:09:40.965Z,16.22
2022-10-23T12:12:07.395Z,16.25
2022-10-23T12:14:53.848Z,16.30
2022-10-23T12:17:23.338Z,16.38
2022-10-23T12:19:52.826Z,16.39
2022-10-23T12:22:59.155Z,16.44
2022-10-23T12:25:43.320Z,16.52
2022-10-23T12:28:40.989Z,16.52
2022-10-23T12:31:47.139Z,16.57
2022-10-23T12:34:57.149Z,16.57
2022-10-23T12:37:42.503Z,16.58
2022-10-23T12:40:10.498Z,16.55
2022-10-23T12:42:37.671Z,16.56
2022-10-23T12:45:10.153Z,16.60
2022-10-23T12:50:17.470Z,16.67
2022-10-23T12:53:01.778Z,16.60
2022-10-23T12:55:35.766Z,16.64
2022-10-23T12:58:02.583Z,16.62
2022-10-23T13:00:29.415Z,16.61
2022-10-23T13:03:00.988Z,16.64
2022-10-23T13:05:28.576Z,16.64
2022-10-23T13:07:58.173Z,16.69
2022-10-23T13:10:25.980Z,16.69
2022-10-23T13:12:59.506Z,16.67
2022-10-23T13:15:35.982Z,16.68
2022-10-23T13:18:04.090Z,16.70
2022-10-23T13:20:36.751Z,16.74
2022-10-23T13:23:20.613Z,16.75
2022-10-23T13:26:02.363Z,16.82
2022-10-23T13:28:33.156Z,16.86
2022-10-23T13:31:06.519Z,16.89
2022-10-23T13:33:37.760Z,16.87
2022-10-23T13:36:13.319Z,16.96
2022-10-23T13:38:45.574Z,16.94
2022-10-23T13:41:20.171Z,16.90
2022-10-23T13:43:54.419Z,16.96
2022-10-23T13:46:23.622Z,16.92
2022-10-23T13:48:50.114Z,17.01
2022-10-23T13:51:21.259Z,16.98
2022-10-23T13:53:48.272Z,17.07
2022-10-23T13:56:17.143Z,17.02
2022-10-23T13:58:43.719Z,17.03
2022-10-23T14:01:22.217Z,17.09
2022-10-23T14:03:50.045Z,17.07
2022-10-23T14:06:16.899Z,17.10
2022-10-23T14:08:43.622Z,17.10
2022-10-23T14:13:47.677Z,17.11
2022-10-23T14:16:15.948Z,17.16
2022-10-23T14:18:43.318Z,17.13
2022-10-23T14:21:12.736Z,17.17
2022-10-23T14:23:39.552Z,17.19
2022-10-23T14:26:09.125Z,17.18
2022-10-23T14:28:36.178Z,17.22
2022-10-23T14:31:11.745Z,17.18
2022-10-23T14:33:38.901Z,17.16
2022-10-23T14:36:06.165Z,17.13
2022-10-23T14:38:33.126Z,17.14
2022-10-23T14:41:00.168Z,17.09
2022-10-23T14:43:26.606Z,17.10
2022-10-23T14:45:53.142Z,17.11
2022-10-23T14:48:20.756Z,17.11
2022-10-23T14:50:49.501Z,17.08
2022-10-23T14:53:16.711Z,17.05
2022-10-23T14:55:43.196Z,17.00
2022-10-23T14:58:09.811Z,17.02
2022-10-23T15:00:36.225Z,17.03
2022-10-23T15:03:02.825Z,17.03
2022-10-23T15:05:29.267Z,16.98
2022-10-23T15:07:56.702Z,16.99
2022-10-23T15:10:23.136Z,16.98
2022-10-23T15:12:50.217Z,16.95
2022-10-23T15:15:17.042Z,16.98
2022-10-23T15:17:43.758Z,16.95
2022-10-23T15:20:10.558Z,16.90
2022-10-23T15:22:37.033Z,16.87
2022-10-23T15:25:03.704Z,16.89
2022-10-23T15:27:30.106Z,16.85
2022-10-23T15:29:56.632Z,16.83
2022-10-23T15:32:23.184Z,16.83
2022-10-23T15:34:49.879Z,16.80
2022-10-23T15:37:16.785Z,16.75
2022-10-23T15:39:44.306Z,16.74
2022-10-23T15:42:10.843Z,16.70
2022-10-23T15:44:39.831Z,16.63
2022-10-23T15:47:06.284Z,16.59
2022-10-23T15:49:33.211Z,16.57
2022-10-23T15:51:59.804Z,16.51
2022-10-23T15:54:29.235Z,16.53
2022-10-23T15:56:58.661Z,16.47
2022-10-23T15:59:25.646Z,16.44
2022-10-23T16:01:53.019Z,16.39
2022-10-23T16:04:24.720Z,16.40
2022-10-23T16:06:51.492Z,16.39
2022-10-23T16:09:18.087Z,16.40
2022-10-23T16:11:44.719Z,16.37
2022-10-23T16:14:15.951Z,16.33
2022-10-23T16:16:43.116Z,16.33
2022-10-23T16:19:10.585Z,16.35
2022-10-23T16:21:37.301Z,16.33
2022-10-23T16:24:06.007Z,16.31
2022-10-23T16:26:33.129Z,16.29
2022-10-23T16:29:02.907Z,16.27
2022-10-23T16:31:29.897Z,16.26
2022-10-23T16:34:01.064Z,16.29
2022-10-23T16:36:28.214Z,16.25
2022-10-23T16:38:54.737Z,16.19
2022-10-23T16:41:21.363Z,16.23
2022-10-23T16:43:47.811Z,16.24
2022-10-23T16:46:17.831Z,16.17
2022-10-23T16:48:44.328Z,16.18
2022-10-23T16:51:14.232Z,16.21
2022-10-23T16:53:41.185Z,16.14
2022-10-23T16:56:09.970Z,16.13
2022-10-23T16:58:37.168Z,16.15
2022-10-23T17:01:07.119Z,16.14
2022-10-23T17:03:34.981Z,16.14
2022-10-23T17:06:05.036Z,16.10
2022-10-23T17:08:34.144Z,16.10
2022-10-23T17:11:21.066Z,16.12
2022-10-23T17:13:59.917Z,16.10
2022-10-23T17:16:37.263Z,16.08
2022-10-23T17:19:15.850Z,16.05
2022-10-23T17:21:47.956Z,16.00
2022-10-23T17:24:14.518Z,15.95
2022-10-23T17:26:41.376Z,15.92
2022-10-23T17:29:10.046Z,15.95
2022-10-23T17:31:39.536Z,15.95
2022-10-23T17:34:07.783Z,15.95
2022-10-23T17:36:37.627Z,15.93
2022-10-23T17:39:05.777Z,15.91
2022-10-23T17:41:32.245Z,15.89
2022-10-23T17:43:59.555Z,15.85
2022-10-23T17:46:29.216Z,15.87
2022-10-23T17:49:00.291Z,15.85
2022-10-23T17:51:28.964Z,15.79
2022-10-23T17:53:57.289Z,15.79
2022-10-23T17:56:25.955Z,15.75
2022-10-23T17:58:54.217Z,15.82
2022-10-23T18:01:26.683Z,15.83
2022-10-23T18:03:55.299Z,15.80
2022-10-23T18:06:27.370Z,15.75
2022-10-23T18:08:56.688Z,15.83
2022-10-23T18:11:26.025Z,15.84
2022-10-23T18:13:53.814Z,15.84
2022-10-23T18:16:21.970Z,15.85
2022-10-23T18:18:49.295Z,15.88
2022-10-23T18:21:16.865Z,15.91
2022-10-23T18:23:43.954Z,15.95
2022-10-23T18:26:17.708Z,15.99
2022-10-23T18:28:49.516Z,16.04
2022-10-23T18:31:17.365Z,16.07
2022-10-23T18:33:44.659Z,16.06
2022-10-23T18:36:23.475Z,16.06
2022-10-23T18:38:50.491Z,16.10
2022-10-23T18:41:18.659Z,16.13
2022-10-23T18:43:45.787Z,16.15
2022-10-23T18:46:13.187Z,16.17
2022-10-23T18:48:40.462Z,16.16
2022-10-23T18:51:25.748Z,16.23
2022-10-23T18:53:52.967Z,16.22
2022-10-23T18:56:26.088Z,16.26
2022-10-23T18:58:55.157Z,16.30
2022-10-23T19:01:23.307Z,16.24
2022-10-23T19:03:50.605Z,16.26
2022-10-23T19:06:17.709Z,16.24
2022-10-23T19:08:45.562Z,16.35
2022-10-23T19:11:14.026Z,16.37
2022-10-23T19:13:41.428Z,16.39
2022-10-23T19:16:16.861Z,16.48
2022-10-23T19:18:47.795Z,16.54
2022-10-23T19:21:15.110Z,16.52
2022-10-23T19:23:42.867Z,16.46
2022-10-23T19:26:11.978Z,16.43
2022-10-23T19:28:42.353Z,16.30
2022-10-23T19:31:10.496Z,16.25
2022-10-23T19:33:39.190Z,16.21
2022-10-23T19:36:11.146Z,16.09
2022-10-23T19:38:41.378Z,15.98
2022-10-23T19:41:08.182Z,15.90
2022-10-23T19:43:34.774Z,15.87
2022-10-23T19:46:04.968Z,15.82
2022-10-23T19:48:34.392Z,15.73
2022-10-23T19:51:04.011Z,15.64
2022-10-23T19:53:30.701Z,15.55
2022-10-23T19:56:06.448Z,15.45
2022-10-23T19:58:33.352Z,15.36
2022-10-23T20:01:07.658Z,15.34
2022-10-23T20:03:34.265Z,15.28
2022-10-23T20:06:01.262Z,15.25
2022-10-23T20:08:31.314Z,15.18
2022-10-23T20:11:00.842Z,15.14
2022-10-23T20:13:27.435Z,15.05
2022-10-23T20:15:56.908Z,15.02
2022-10-23T20:18:23.577Z,14.95
2022-10-23T20:20:54.015Z,14.95
2022-10-23T20:23:20.583Z,14.89
2022-10-23T20:25:47.273Z,14.85
2022-10-23T20:28:15.208Z,14.83
2022-10-23T20:30:42.644Z,14.78
2022-10-23T20:33:09.184Z,14.77
2022-10-23T20:35:44.830Z,14.72
2022-10-23T20:38:11.584Z,14.59
2022-10-23T20:40:41.546Z,14.58
2022-10-23T20:43:08.023Z,14.53
2022-10-23T20:45:36.133Z,14.52
2022-10-23T20:48:02.574Z,14.52
2022-10-23T20:50:29.082Z,14.46
2022-10-23T20:52:55.680Z,14.41
2022-10-23T20:55:22.308Z,14.38
2022-10-23T20:57:48.973Z,14.47
2022-10-23T21:00:15.618Z,14.45
2022-10-23T21:02:43.840Z,14.43
2022-10-23T21:05:12.204Z,14.46
2022-10-23T21:07:38.945Z,14.49
2022-10-23T21:10:05.862Z,14.56
2022-10-23T21:12:32.303Z,14.52
2022-10-23T21:14:59.001Z,14.54
2022-10-23T21:17:25.536Z,14.55
2022-10-23T21:19:52.198Z,14.50
2022-10-23T21:22:18.663Z,14.61
2022-10-23T21:24:45.187Z,14.60
2022-10-23T21:27:11.630Z,14.60
2022-10-23T21:29:38.057Z,14.62
2022-10-23T21:32:04.748Z,14.68
2022-10-23T21:34:31.260Z,14.69
2022-10-23T21:37:12.399Z,14.66
2022-10-23T21:39:40.686Z,14.66
2022-10-23T21:42:07.205Z,14.68
2022-10-23T21:44:33.777Z,14.68
2022-10-23T21:47:00.431Z,14.63
2022-10-23T21:49:26.925Z,14.64
2022-10-23T21:51:54.921Z,14.62
2022-10-23T21:54:21.807Z,14.60
2022-10-23T21:56:50.966Z,14.57
2022-10-23T21:59:21.323Z,14.52
2022-10-23T22:01:49.236Z,14.48
2022-10-23T22:04:17.286Z,14.51
2022-10-23T22:06:44.804Z,14.50
2022-10-23T22:09:14.184Z,14.51
2022-10-23T22:11:41.527Z,14.52
2022-10-23T22:14:08.110Z,14.48
2022-10-23T22:16:34.872Z,14.46
2022-10-23T22:19:01.762Z,14.38
2022-10-23T22:21:30.043Z,14.34
2022-10-23T22:23:58.799Z,14.24
2022-10-23T22:26:25.353Z,14.23
2022-10-23T22:28:53.888Z,14.20
2022-10-23T22:31:25.339Z,14.22
2022-10-23T22:33:53.082Z,14.21
2022-10-23T22:36:20.490Z,14.21
2022-10-23T22:38:47.937Z,14.21
2022-10-23T22:41:15.150Z,14.19
2022-10-23T22:43:42.631Z,14.27
2022-10-23T22:46:20.287Z,14.28
2022-10-23T22:48:46.849Z,14.31
2022-10-23T22:51:15.381Z,14.34
2022-10-23T22:53:42.743Z,14.33
2022-10-23T22:56:12.494Z,14.25
2022-10-23T22:58:39.177Z,14.25
2022-10-23T23:01:21.038Z,14.28
2022-10-23T23:03:48.922Z,14.28
2022-10-23T23:06:16.347Z,14.33
2022-10-23T23:08:43.339Z,14.38
2022-10-23T23:11:12.833Z,14.32
2022-10-23T23:13:40.729Z,14.26
2022-10-23T23:16:08.014Z,14.28
2022-10-23T23:18:34.999Z,14.22
2022-10-23T23:21:06.141Z,14.30
2022-10-23T23:23:32.660Z,14.29
2022-10-23T23:25:59.127Z,14.27
2022-10-23T23:28:25.725Z,14.24
2022-10-23T23:31:05.846Z,14.22
2022-10-23T23:33:32.405Z,14.29
2022-10-23T23:35:59.353Z,14.26
2022-10-23T23:38:26.053Z,14.19
2022-10-23T23:40:53.734Z,14.14
2022-10-23T23:43:21.181Z,14.10
2022-10-23T23:45:47.590Z,14.06
2022-10-23T23:48:14.204Z,14.02
2022-10-23T23:50:41.184Z,14.04
2022-10-23T23:53:07.745Z,14.07
2022-10-23T23:55:34.783Z,14.06
2022-10-23T23:58:01.406Z,14.05
